Station Historical Data
Daily Summary for June 4, 2017 Units:  English    Metric   Both
« Previous Day
Next Day »
Daily Weekly Monthly Yearly Custom
  High: Low: Average:
Temperature: 79.0 °F 69.6 °F 72.4 °F
Dew Point: 70.7 °F 64.9 °F 67.8 °F
Humidity: 93% 74% 86%
Wind Speed: 1.0mph 0.0mph 0mph
Wind Gust: 3.0mph - -
Wind- - NW
Pressure: 30.01 in 29.88 in -
Precipitation: 0.55 in    
Historical Graphs
 
 
Tabular Data for June 4, 2017
Time Temperature Dew Point Pressure Wind Wind Speed Wind Gust Humidity Rainfall Rate (Hourly) solar Conditions
00:00 73.1 °F 66.2 °F 30.01 in Calm     79% 0.00 in WeatherDisplay:10.37 W/m2 SCT
00:10 72.9 °F 66.4 °F 30.01 in Calm     80% 0.00 in WeatherDisplay:10.37 W/m2 SCT
00:20 72.6 °F 66.1 °F 30.00 in Calm     80% 0.00 in WeatherDisplay:10.37 W/m2 SCT
00:30 72.4 °F 66.2 °F 30.00 in Calm     81% 0.00 in WeatherDisplay:10.37 W/m2 SCT
00:40 72.2 °F 66.0 °F 30.00 in Calm     81% 0.00 in WeatherDisplay:10.37 W/m2 SCT
00:50 72.1 °F 65.9 °F 30.00 in Calm     81% 0.00 in WeatherDisplay:10.37 W/m2 SCT
01:00 71.9 °F 66.1 °F 30.00 in Calm     82% 0.00 in WeatherDisplay:10.37 W/m2 SCT
01:10 71.8 °F 66.0 °F 30.00 in Calm     82% 0.00 in WeatherDisplay:10.37 W/m2 SCT
01:20 71.6 °F 66.2 °F 30.00 in Calm     83% 0.00 in WeatherDisplay:10.37 W/m2 SCT
01:30 71.4 °F 66.0 °F 30.00 in Calm     83% 0.00 in WeatherDisplay:10.37 W/m2 SCT
01:40 71.5 °F 66.4 °F 30.00 in Calm     84% 0.00 in WeatherDisplay:10.37 W/m2 SCT
01:50 71.8 °F 66.4 °F 30.00 in Calm     83% 0.00 in WeatherDisplay:10.37 W/m2 SCT
02:00 71.7 °F 66.3 °F 30.00 in Calm     83% 0.00 in WeatherDisplay:10.37 W/m2 SCT
02:10 71.4 °F 66.0 °F 29.99 in Calm     83% 0.00 in WeatherDisplay:10.37 W/m2 SCT
02:20 71.1 °F 66.0 °F 29.99 in Calm     84% 0.00 in WeatherDisplay:10.37 W/m2 SCT
02:30 70.8 °F 65.7 °F 29.99 in Calm     84% 0.00 in WeatherDisplay:10.37 W/m2 SCT
02:40 70.7 °F 66.0 °F 29.99 in Calm     85% 0.00 in WeatherDisplay:10.37 W/m2 SCT
02:50 70.6 °F 65.9 °F 29.99 in Calm     85% 0.00 in WeatherDisplay:10.37 W/m2 SCT
03:00 70.5 °F 66.1 °F 29.99 in Calm     86% 0.00 in WeatherDisplay:10.37 W/m2 SCT
03:10 70.5 °F 66.1 °F 29.99 in Calm     86% 0.00 in WeatherDisplay:10.37 W/m2 SCT
03:20 69.6 °F 64.9 °F 29.99 in Calm     85% 0.00 in WeatherDisplay:10.37 W/m2 SCT
03:30 69.6 °F 64.9 °F 29.99 in Calm     85% 0.00 in WeatherDisplay:10.37 W/m2 SCT
03:40 69.6 °F 64.9 °F 29.98 in Calm     85% 0.00 in WeatherDisplay:10.37 W/m2 SCT
03:50 69.6 °F 64.9 °F 29.98 in Calm     85% 0.00 in WeatherDisplay:10.37 W/m2 SCT
04:10 69.6 °F 64.9 °F 29.98 in Calm     85% 0.00 in WeatherDisplay:10.37 W/m2 SCT
04:20 69.6 °F 64.9 °F 29.98 in Calm     85% 0.00 in WeatherDisplay:10.37 W/m2 SCT
04:30 69.6 °F 64.9 °F 29.98 in Calm     85% 0.00 in WeatherDisplay:10.37 W/m2 SCT
04:40 69.6 °F 64.9 °F 29.98 in Calm     85% 0.00 in WeatherDisplay:10.37 W/m2 SCT
04:50 69.6 °F 64.9 °F 29.98 in Calm     85% 0.00 in WeatherDisplay:10.37 W/m2 SCT
05:00 69.6 °F 64.9 °F 29.98 in Calm     85% 0.00 in WeatherDisplay:10.37 W/m2 SCT
05:10 69.6 °F 64.9 °F 29.98 in Calm     85% 0.00 in WeatherDisplay:10.37 W/m2 SCT
05:20 69.6 °F 64.9 °F 29.98 in Calm     85% 0.00 in WeatherDisplay:10.37 W/m2 SCT
05:30 69.6 °F 64.9 °F 29.98 in Calm     85% 0.00 in WeatherDisplay:10.37 W/m2 SCT
05:40 69.6 °F 64.9 °F 29.98 in Calm     85% 0.00 in WeatherDisplay:10.37 W/m2 SCT
05:50 69.6 °F 64.9 °F 29.98 in Calm     85% 0.00 in WeatherDisplay:10.37 W/m2 SCT
06:00 69.6 °F 64.9 °F 29.98 in Calm     85% 0.00 in WeatherDisplay:10.37 W/m2 SCT
06:10 69.6 °F 64.9 °F 29.99 in Calm     85% 0.00 in WeatherDisplay:10.37 W/m2 SCT
06:20 69.6 °F 64.9 °F 29.99 in Calm     85% 0.00 in WeatherDisplay:10.37 W/m2 SCT
06:30 69.6 °F 64.9 °F 29.99 in Calm     85% 0.00 in WeatherDisplay:10.37 W/m2 SCT
06:40 69.6 °F 64.9 °F 29.99 in Calm     85% 0.00 in WeatherDisplay:10.37 W/m2 SCT
06:50 69.6 °F 64.9 °F 29.99 in Calm     85% 0.00 in WeatherDisplay:10.37 W/m2 SCT
07:00 69.6 °F 64.9 °F 29.99 in Calm     85% 0.00 in WeatherDisplay:10.37 W/m2 SCT
07:10 69.6 °F 64.9 °F 30.00 in Calm     85% 0.00 in WeatherDisplay:10.37 W/m2 SCT
07:20 69.6 °F 64.9 °F 30.00 in Calm     85% 0.00 in WeatherDisplay:10.37 W/m2 SCT
07:30 69.6 °F 64.9 °F 30.00 in Calm     85% 0.00 in WeatherDisplay:10.37 W/m2 SCT
07:40 69.6 °F 64.9 °F 30.00 in Calm     85% 0.00 in WeatherDisplay:10.37 W/m2 SCT
07:50 69.6 °F 64.9 °F 30.00 in Calm     85% 0.00 in WeatherDisplay:10.37 W/m2 SCT
08:00 69.6 °F 64.9 °F 30.00 in Calm     85% 0.00 in WeatherDisplay:10.37 W/m2 SCT
08:10 69.6 °F 64.9 °F 30.00 in Calm     85% 0.00 in WeatherDisplay:10.37 W/m2 SCT
08:20 69.6 °F 64.9 °F 30.00 in Calm     85% 0.00 in WeatherDisplay:10.37 W/m2 SCT
08:30 69.6 °F 64.9 °F 30.00 in Calm     85% 0.00 in WeatherDisplay:10.37 W/m2 SCT
08:40 69.6 °F 64.9 °F 30.00 in Calm     85% 0.00 in WeatherDisplay:10.37 W/m2 SCT
08:50 72.0 °F 67.9 °F 30.00 in Calm     87% 0.00 in WeatherDisplay:10.37 W/m2 SCT
09:00 72.5 °F 68.4 °F 30.00 in Calm     87% 0.00 in WeatherDisplay:10.37 W/m2 SCT
09:10 73.0 °F 68.3 °F 30.00 in Calm     85% 0.00 in WeatherDisplay:10.37 W/m2 SCT
09:20 73.7 °F 68.9 °F 30.00 in Calm     85% 0.00 in WeatherDisplay:10.37 W/m2 SCT
09:30 74.2 °F 68.3 °F 30.00 in Calm     82% 0.00 in WeatherDisplay:10.37 W/m2 SCT
09:40 74.4 °F 68.5 °F 30.00 in Calm   1.0 mph 82% 0.00 in WeatherDisplay:10.37 W/m2 SCT
09:50 74.5 °F 69.0 °F 30.01 in Calm     83% 0.00 in WeatherDisplay:10.37 W/m2 SCT
10:00 74.2 °F 69.4 °F 30.01 in Calm     85% 0.00 in WeatherDisplay:10.37 W/m2 SCT
10:10 73.3 °F 69.6 °F 30.00 in Calm     88% 0.03 in WeatherDisplay:10.37 W/m2 RA
10:20 73.0 °F 69.6 °F 30.00 in Calm     89% 0.01 in WeatherDisplay:10.37 W/m2 SCT
10:30 72.8 °F 69.7 °F 30.00 in Calm     90% 0.01 in WeatherDisplay:10.37 W/m2 SCT
10:40 72.7 °F 69.6 °F 29.99 in Calm     90% 0.01 in WeatherDisplay:10.37 W/m2 SCT
10:50 73.0 °F 70.2 °F 29.99 in Calm     91% 0.00 in WeatherDisplay:10.37 W/m2 SCT
11:00 73.1 °F 70.3 °F 29.99 in Calm     91% 0.00 in WeatherDisplay:10.37 W/m2 SCT
11:10 73.3 °F 70.5 °F 29.99 in Calm     91% 0.01 in WeatherDisplay:10.37 W/m2 SCT
11:20 73.4 °F 70.3 °F 30.00 in Calm     90% 0.00 in WeatherDisplay:10.37 W/m2 SCT
11:30 73.5 °F 70.4 °F 30.00 in Calm     90% 0.00 in WeatherDisplay:10.37 W/m2 SCT
11:40 73.4 °F 70.0 °F 30.00 in Calm     89% 0.00 in WeatherDisplay:10.37 W/m2 SCT
11:50 73.4 °F 70.3 °F 30.00 in Calm     90% 0.00 in WeatherDisplay:10.37 W/m2 SCT
12:00 73.3 °F 70.2 °F 30.00 in Calm     90% 0.00 in WeatherDisplay:10.37 W/m2 SCT
12:10 73.5 °F 70.3 °F 30.01 in Calm     90% 0.00 in WeatherDisplay:10.37 W/m2 SCT
12:20 73.2 °F 70.1 °F 30.00 in Calm     90% 0.00 in WeatherDisplay:10.37 W/m2 SCT
12:30 73.1 °F 70.3 °F 30.00 in Calm     91% 0.02 in WeatherDisplay:10.37 W/m2 RA
12:40 72.8 °F 69.7 °F 30.00 in Calm     90% 0.01 in WeatherDisplay:10.37 W/m2 SCT
12:50 72.7 °F 69.9 °F 30.00 in Calm     91% 0.01 in WeatherDisplay:10.37 W/m2 SCT
13:00 72.8 °F 70.3 °F 30.00 in Calm     92% 0.00 in WeatherDisplay:10.37 W/m2 SCT
13:10 72.8 °F 70.4 °F 30.00 in Calm     92% 0.00 in WeatherDisplay:10.37 W/m2 SCT
13:20 72.9 °F 70.4 °F 29.99 in Calm   2.0 mph 92% 0.01 in WeatherDisplay:10.37 W/m2 SCT
13:30 72.6 °F 69.9 °F 29.99 in Calm   2.0 mph 91% 0.00 in WeatherDisplay:10.37 W/m2 SCT
13:40 72.1 °F 69.3 °F 29.98 in Calm   1.0 mph 91% 0.00 in WeatherDisplay:10.37 W/m2 SCT
13:50 71.8 °F 68.7 °F 29.98 in Calm   1.0 mph 90% 0.00 in WeatherDisplay:10.37 W/m2 SCT
14:10 71.6 °F 68.8 °F 29.97 in Calm   1.0 mph 91% 0.00 in WeatherDisplay:10.37 W/m2 SCT
14:20 71.8 °F 69.1 °F 29.97 in WNW 1.0 mph 1.0 mph 91% 0.00 in WeatherDisplay:10.37 W/m2 SCT
14:30 72.0 °F 68.9 °F 29.96 in Calm   1.0 mph 90% 0.00 in WeatherDisplay:10.37 W/m2 SCT
14:40 72.7 °F 69.3 °F 29.95 in NW 1.0 mph 3.0 mph 89% 0.00 in WeatherDisplay:10.37 W/m2 SCT
14:50 73.6 °F 70.2 °F 29.95 in Calm   3.0 mph 89% 0.00 in WeatherDisplay:10.37 W/m2 SCT
15:00 74.3 °F 69.5 °F 29.94 in Calm   1.0 mph 85% 0.00 in WeatherDisplay:10.37 W/m2 SCT
15:10 74.4 °F 69.9 °F 29.93 in Calm   1.0 mph 86% 0.00 in WeatherDisplay:10.37 W/m2 SCT
15:20 74.6 °F 69.8 °F 29.93 in WNW 1.0 mph 1.0 mph 85% 0.00 in WeatherDisplay:10.37 W/m2 SCT
15:30 75.3 °F 70.1 °F 29.92 in Calm   2.0 mph 84% 0.00 in WeatherDisplay:10.37 W/m2 SCT
15:40 75.5 °F 70.0 °F 29.92 in WNW 1.0 mph 3.0 mph 83% 0.00 in WeatherDisplay:10.37 W/m2 SCT
15:50 75.4 °F 70.2 °F 29.92 in Calm   2.0 mph 84% 0.00 in WeatherDisplay:10.37 W/m2 SCT
16:00 75.7 °F 70.2 °F 29.92 in Calm   3.0 mph 83% 0.00 in WeatherDisplay:10.37 W/m2 SCT
16:10 76.2 °F 69.9 °F 29.92 in Calm   3.0 mph 81% 0.00 in WeatherDisplay:10.37 W/m2 SCT
16:20 77.0 °F 70.7 °F 29.91 in NW 1.0 mph 2.0 mph 81% 0.00 in WeatherDisplay:10.37 W/m2 SCT
16:30 76.8 °F 70.2 °F 29.91 in Calm   2.0 mph 80% 0.00 in WeatherDisplay:10.37 W/m2 SCT
16:40 77.4 °F 69.2 °F 29.91 in Calm   3.0 mph 76% 0.00 in WeatherDisplay:10.37 W/m2 SCT
16:50 77.9 °F 69.7 °F 29.91 in Calm   2.0 mph 76% 0.00 in WeatherDisplay:10.37 W/m2 SCT
17:00 78.5 °F 70.3 °F 29.90 in Calm   1.0 mph 76% 0.00 in WeatherDisplay:10.37 W/m2 SCT
17:10 79.0 °F 70.0 °F 29.90 in NW 1.0 mph 2.0 mph 74% 0.00 in WeatherDisplay:10.37 W/m2 SCT
17:20 78.6 °F 69.6 °F 29.90 in Calm   1.0 mph 74% 0.00 in WeatherDisplay:10.37 W/m2 SCT
17:30 78.5 °F 70.7 °F 29.90 in Calm   1.0 mph 77% 0.00 in WeatherDisplay:10.37 W/m2 SCT
17:40 78.2 °F 70.0 °F 29.90 in Calm   1.0 mph 76% 0.00 in WeatherDisplay:10.37 W/m2 SCT
17:50 77.8 °F 70.0 °F 29.90 in Calm   1.0 mph 77% 0.00 in WeatherDisplay:10.37 W/m2 SCT
18:00 77.5 °F 69.8 °F 29.90 in Calm   1.0 mph 77% 0.00 in WeatherDisplay:10.37 W/m2 SCT
18:10 77.4 °F 70.0 °F 29.90 in Calm   1.0 mph 78% 0.00 in WeatherDisplay:10.37 W/m2 SCT
18:20 77.1 °F 70.1 °F 29.89 in Calm     79% 0.00 in WeatherDisplay:10.37 W/m2 SCT
18:30 76.7 °F 70.1 °F 29.89 in Calm   1.0 mph 80% 0.00 in WeatherDisplay:10.37 W/m2 SCT
18:40 77.2 °F 70.5 °F 29.89 in Calm   2.0 mph 80% 0.00 in WeatherDisplay:10.37 W/m2 SCT
18:50 77.3 °F 69.9 °F 29.89 in Calm   3.0 mph 78% 0.00 in WeatherDisplay:10.37 W/m2 SCT
19:00 77.2 °F 69.4 °F 29.88 in Calm   3.0 mph 77% 0.00 in WeatherDisplay:10.37 W/m2 SCT
19:10 76.8 °F 68.7 °F 29.89 in Calm   2.0 mph 76% 0.00 in WeatherDisplay:10.37 W/m2 SCT
19:20 76.1 °F 68.4 °F 29.89 in Calm   2.0 mph 77% 0.00 in WeatherDisplay:10.37 W/m2 SCT
19:30 75.5 °F 68.5 °F 29.89 in Calm   2.0 mph 79% 0.00 in WeatherDisplay:10.37 W/m2 SCT
19:40 74.2 °F 68.7 °F 29.90 in Calm   1.0 mph 83% 0.00 in WeatherDisplay:10.37 W/m2 SCT
19:50 72.9 °F 68.4 °F 29.91 in Calm     86% 0.04 in WeatherDisplay:10.37 W/m2 RA
20:00 72.1 °F 68.3 °F 29.91 in Calm     88% 0.01 in WeatherDisplay:10.37 W/m2 SCT
20:10 71.7 °F 68.2 °F 29.92 in Calm     89% 0.02 in WeatherDisplay:10.37 W/m2 RA
20:20 71.4 °F 68.3 °F 29.92 in Calm     90% 0.03 in WeatherDisplay:10.37 W/m2 RA
20:30 71.1 °F 68.0 °F 29.92 in Calm     90% 0.04 in WeatherDisplay:10.37 W/m2 RA
20:40 70.8 °F 68.0 °F 29.93 in Calm     91% 0.05 in WeatherDisplay:10.37 W/m2 RA
20:50 70.7 °F 67.9 °F 29.93 in Calm     91% 0.05 in WeatherDisplay:10.37 W/m2 RA
21:00 70.6 °F 68.1 °F 29.93 in Calm     92% 0.08 in WeatherDisplay:10.37 W/m2 RA
21:10 70.6 °F 68.2 °F 29.92 in Calm     92% 0.01 in WeatherDisplay:10.37 W/m2 SCT
21:20 70.5 °F 68.1 °F 29.92 in Calm     92% 0.00 in WeatherDisplay:10.37 W/m2 SCT
21:30 70.5 °F 68.1 °F 29.92 in Calm     92% 0.01 in WeatherDisplay:10.37 W/m2 SCT
21:50 70.3 °F 67.9 °F 29.92 in Calm     92% 0.00 in WeatherDisplay:10.37 W/m2 SCT
22:00 70.3 °F 68.2 °F 29.92 in Calm     93% 0.00 in WeatherDisplay:10.37 W/m2 SCT
22:10 70.3 °F 68.2 °F 29.92 in Calm     93% 0.00 in WeatherDisplay:10.37 W/m2 SCT
22:20 70.2 °F 68.1 °F 29.92 in Calm     93% 0.03 in WeatherDisplay:10.37 W/m2 RA
22:30 70.2 °F 68.1 °F 29.92 in Calm     93% 0.02 in WeatherDisplay:10.37 W/m2 SCT
22:40 70.2 °F 68.1 °F 29.92 in Calm     93% 0.03 in WeatherDisplay:10.37 W/m2 SCT
22:50 70.3 °F 68.2 °F 29.92 in Calm     93% 0.00 in WeatherDisplay:10.37 W/m2 SCT
23:10 70.2 °F 68.1 °F 29.92 in Calm     93% 0.00 in WeatherDisplay:10.37 W/m2 SCT
23:20 70.1 °F 68.0 °F 29.92 in Calm     93% 0.00 in WeatherDisplay:10.37 W/m2 SCT
23:30 70.0 °F 67.9 °F 29.92 in Calm     93% 0.00 in WeatherDisplay:10.37 W/m2 SCT
23:40 69.9 °F 67.8 °F 29.92 in Calm     93% 0.00 in WeatherDisplay:10.37 W/m2 SCT
23:50 70.0 °F 67.9 °F 29.92 in Calm     93% 0.00 in WeatherDisplay:10.37 W/m2 SCT
Piedmont Bend
Compliments of Weather Underground - 4 mb